WXM80 ListenWXM80 Stop

You find our weather info also at:

UK Metoffice

WeatherCloud

Weather Underground

Northeastern Weather Network

AWEKAS

Citizen Weather Observer Program (CWOP)

HAMweather, WeatherForYou, PWS Weather


Weather Underground History page Text

Daily Summary for January 21, 2017 Units:  English    Metric   Both
« Previous Day
Next Day »
Daily Weekly Monthly Yearly Custom
  High: Low: Average:
Temperature: 53.5 °F 40.1 °F 45.1 °F
Dew Point: 47.1 °F 38.6 °F 42.8 °F
Humidity: 97 % 77 % 92 %
Wind Speed: 5.6 mph 0.0 mph 1.3 mph
Wind Gust: 9.2 mph - -
Wind:- - WSW
Pressure: 29.90 in 29.75 in -
Precipitation: 0.00 in    
Historical Graphs
 
 
Tabular Data for January 21, 2017
Time Temperature Dew Point Pressure Wind Wind Speed Wind Gust Humidity Rainfall Rate (Hourly)
00:04 40.2 °F 38.6 °F 29.88 in Calm     94 % 0.01 in
00:09 40.3 °F 38.7 °F 29.88 in Calm     94 % 0.01 in
00:14 40.2 °F 38.6 °F 29.89 in ESE 0.1 mph 1.2 mph 94 % 0.01 in
00:19 40.2 °F 38.9 °F 29.89 in ESE 0.4 mph 1.2 mph 95 % 0.01 in
00:24 40.2 °F 38.9 °F 29.89 in ESE 1.2 mph 2.3 mph 95 % 0.01 in
00:29 40.2 °F 38.9 °F 29.89 in Calm   3.5 mph 95 % 0.01 in
00:34 40.2 °F 38.9 °F 29.89 in WNW 0.1 mph 1.2 mph 95 % 0.01 in
00:39 40.1 °F 38.8 °F 29.90 in Calm     95 % 0.00 in
00:44 40.1 °F 38.8 °F 29.90 in WNW 1.2 mph 2.3 mph 95 % 0.00 in
00:49 40.1 °F 38.8 °F 29.89 in WNW 0.4 mph 2.3 mph 95 % 0.00 in
00:54 40.1 °F 38.8 °F 29.90 in WNW 1.7 mph 3.5 mph 95 % 0.00 in
00:59 40.1 °F 38.8 °F 29.89 in West 0.7 mph 1.2 mph 95 % 0.00 in
01:05 40.1 °F 38.8 °F 29.89 in Calm   1.2 mph 95 % 0.00 in
01:10 40.1 °F 38.8 °F 29.89 in West 1.3 mph 2.3 mph 95 % 0.00 in
01:15 40.1 °F 38.8 °F 29.89 in Calm   1.2 mph 95 % 0.00 in
01:20 40.1 °F 38.8 °F 29.89 in West 0.5 mph 2.0 mph 95 % 0.00 in
01:25 40.1 °F 38.8 °F 29.90 in Calm     95 % 0.00 in
01:30 40.1 °F 38.8 °F 29.90 in Calm   1.2 mph 95 % 0.00 in
01:35 40.1 °F 38.8 °F 29.89 in Calm     95 % 0.00 in
01:40 40.2 °F 38.9 °F 29.89 in Calm     95 % 0.00 in
01:45 40.1 °F 38.8 °F 29.89 in Calm     95 % 0.00 in
01:50 40.1 °F 38.8 °F 29.89 in Calm     95 % 0.00 in
01:55 40.1 °F 38.8 °F 29.89 in Calm     95 % 0.00 in
02:00 40.1 °F 38.8 °F 29.89 in Calm     95 % 0.00 in
02:05 40.2 °F 38.9 °F 29.90 in Calm     95 % 0.00 in
02:10 40.2 °F 38.9 °F 29.90 in Calm     95 % 0.00 in
02:15 40.2 °F 38.9 °F 29.89 in Calm     95 % 0.00 in
02:20 40.2 °F 38.9 °F 29.89 in Calm     95 % 0.00 in
02:26 40.2 °F 38.9 °F 29.89 in Calm     95 % 0.00 in
02:31 40.2 °F 38.9 °F 29.89 in Calm     95 % 0.00 in
02:36 40.2 °F 38.9 °F 29.89 in Calm     95 % 0.00 in
02:41 40.2 °F 38.9 °F 29.88 in Calm     95 % 0.00 in
02:46 40.3 °F 39.0 °F 29.88 in Calm     95 % 0.00 in
02:51 40.3 °F 39.0 °F 29.88 in West 0.4 mph 1.2 mph 95 % 0.00 in
02:56 40.3 °F 39.3 °F 29.88 in West 0.4 mph 2.3 mph 96 % 0.00 in
03:01 40.4 °F 39.4 °F 29.87 in SW 0.1 mph 1.2 mph 96 % 0.00 in
03:06 40.5 °F 39.4 °F 29.87 in SW 0.8 mph 2.3 mph 96 % 0.00 in
03:11 40.6 °F 39.5 °F 29.87 in SW 0.1 mph 1.2 mph 96 % 0.00 in
03:16 40.6 °F 39.5 °F 29.86 in Calm   1.2 mph 96 % 0.00 in
03:21 40.7 °F 39.6 °F 29.86 in SW 1.2 mph 3.0 mph 96 % 0.00 in
03:26 40.9 °F 39.8 °F 29.86 in SW 0.3 mph 2.3 mph 96 % 0.00 in
03:31 41.1 °F 40.0 °F 29.86 in SW 0.7 mph 2.3 mph 96 % 0.00 in
03:36 41.1 °F 40.0 °F 29.86 in SW 0.3 mph 2.3 mph 96 % 0.00 in
03:41 41.2 °F 40.1 °F 29.86 in South 1.2 mph 4.0 mph 96 % 0.00 in
03:46 41.3 °F 40.2 °F 29.86 in SW 0.5 mph 2.3 mph 96 % 0.00 in
03:51 41.4 °F 40.3 °F 29.86 in SW 1.4 mph 3.5 mph 96 % 0.00 in
03:57 41.5 °F 40.4 °F 29.86 in WSW 2.0 mph 4.0 mph 96 % 0.00 in
04:02 41.6 °F 40.5 °F 29.85 in WSW 2.3 mph 5.0 mph 96 % 0.00 in
04:07 41.8 °F 40.7 °F 29.85 in SW 2.7 mph 5.8 mph 96 % 0.00 in
04:12 41.9 °F 40.8 °F 29.85 in WSW 3.1 mph 6.9 mph 96 % 0.00 in
04:17 42.0 °F 40.9 °F 29.85 in WSW 1.3 mph 4.6 mph 96 % 0.00 in
04:22 42.2 °F 41.1 °F 29.85 in SW 3.2 mph 5.8 mph 96 % 0.00 in
04:27 42.3 °F 41.2 °F 29.85 in SW 2.4 mph 4.6 mph 96 % 0.00 in
04:32 42.3 °F 41.5 °F 29.85 in SW 5.6 mph 9.2 mph 97 % 0.00 in
04:37 42.4 °F 41.6 °F 29.85 in WSW 1.5 mph 3.5 mph 97 % 0.00 in
04:42 42.5 °F 41.7 °F 29.85 in SW 3.7 mph 6.9 mph 97 % 0.00 in
04:47 42.5 °F 41.4 °F 29.85 in WSW 4.2 mph 8.1 mph 96 % 0.00 in
04:52 42.5 °F 41.4 °F 29.85 in WSW 1.2 mph 3.5 mph 96 % 0.00 in
04:57 42.6 °F 41.5 °F 29.86 in WSW 3.9 mph 8.1 mph 96 % 0.00 in
05:02 42.7 °F 41.6 °F 29.86 in WSW 5.4 mph 6.0 mph 96 % 0.00 in
05:07 42.7 °F 41.6 °F 29.85 in WSW 4.2 mph 8.1 mph 96 % 0.00 in
05:12 42.7 °F 41.9 °F 29.86 in WSW 4.9 mph 8.1 mph 97 % 0.00 in
05:18 42.8 °F 42.0 °F 29.86 in WSW 4.3 mph 6.9 mph 97 % 0.00 in
05:23 42.8 °F 41.7 °F 29.86 in WSW 1.8 mph 6.0 mph 96 % 0.00 in
05:28 42.9 °F 41.8 °F 29.85 in SW 3.5 mph 3.5 mph 96 % 0.00 in
05:33 42.9 °F 41.8 °F 29.85 in SW 1.7 mph 3.5 mph 96 % 0.00 in
05:38 42.8 °F 41.7 °F 29.85 in WSW 0.8 mph 2.3 mph 96 % 0.00 in
05:43 42.8 °F 41.7 °F 29.84 in West 0.5 mph 3.5 mph 96 % 0.00 in
05:48 42.8 °F 41.7 °F 29.84 in Calm     96 % 0.00 in
05:53 42.8 °F 41.7 °F 29.84 in West 0.1 mph 1.2 mph 96 % 0.00 in
05:58 42.8 °F 41.7 °F 29.85 in West 0.9 mph 2.3 mph 96 % 0.00 in
06:03 42.8 °F 41.7 °F 29.84 in West 0.9 mph 3.5 mph 96 % 0.00 in
06:08 42.8 °F 41.7 °F 29.84 in Calm   1.2 mph 96 % 0.00 in
06:13 42.8 °F 41.7 °F 29.85 in West 1.4 mph 2.3 mph 96 % 0.00 in
06:18 42.8 °F 41.7 °F 29.85 in Calm     96 % 0.00 in
06:19 42.8 °F 41.7 °F 29.84 in West 0.1 mph 1.2 mph 96 % 0.00 in
06:24 42.8 °F 41.7 °F 29.84 in West 1.0 mph 3.5 mph 96 % 0.00 in
06:29 42.8 °F 41.7 °F 29.85 in SW 2.3 mph 4.6 mph 96 % 0.00 in
06:34 42.8 °F 41.7 °F 29.85 in SW 1.6 mph 3.5 mph 96 % 0.00 in
06:39 42.8 °F 41.7 °F 29.85 in WSW 0.7 mph 3.5 mph 96 % 0.00 in
06:44 42.8 °F 41.7 °F 29.85 in SW 1.6 mph 4.0 mph 96 % 0.00 in
06:49 42.7 °F 41.6 °F 29.85 in SW 2.2 mph 3.5 mph 96 % 0.00 in
06:54 42.8 °F 41.7 °F 29.85 in SW 4.4 mph 4.4 mph 96 % 0.00 in
06:59 42.8 °F 41.7 °F 29.85 in SW 0.5 mph 2.3 mph 96 % 0.00 in
07:05 42.8 °F 41.7 °F 29.85 in SW 0.2 mph 1.2 mph 96 % 0.00 in
07:10 42.8 °F 41.7 °F 29.85 in SW 3.2 mph 3.5 mph 96 % 0.00 in
07:15 42.8 °F 41.7 °F 29.85 in SW 2.4 mph 4.0 mph 96 % 0.00 in
07:20 42.8 °F 41.7 °F 29.85 in WSW 1.7 mph 3.5 mph 96 % 0.00 in
07:25 42.8 °F 41.7 °F 29.85 in SW 1.5 mph 3.5 mph 96 % 0.00 in
07:30 42.9 °F 41.8 °F 29.85 in WSW 1.2 mph 3.5 mph 96 % 0.00 in
07:35 42.9 °F 41.8 °F 29.85 in West 0.7 mph 3.5 mph 96 % 0.00 in
07:40 42.9 °F 41.8 °F 29.85 in WSW 2.7 mph 4.6 mph 96 % 0.00 in
07:45 43.0 °F 41.9 °F 29.85 in SW 1.8 mph 4.6 mph 96 % 0.00 in
07:50 43.0 °F 41.9 °F 29.85 in Calm     96 % 0.00 in
07:55 43.0 °F 41.9 °F 29.85 in WSW 0.3 mph 2.3 mph 96 % 0.00 in
08:00 43.1 °F 42.0 °F 29.85 in SW 0.7 mph 2.3 mph 96 % 0.00 in
08:05 43.1 °F 42.0 °F 29.85 in SW 1.0 mph 2.3 mph 96 % 0.00 in
08:10 43.2 °F 42.1 °F 29.84 in Calm     96 % 0.00 in
08:15 43.3 °F 42.2 °F 29.85 in SW 0.1 mph 1.2 mph 96 % 0.00 in
08:20 43.4 °F 42.3 °F 29.84 in SW 1.4 mph 3.5 mph 96 % 0.00 in
08:24 43.4 °F 42.4 °F 29.84 in Calm   3.0 mph 96 % 0.00 in
08:29 43.6 °F 42.5 °F 29.84 in SW 1.0 mph 4.0 mph 96 % 0.00 in
08:34 43.8 °F 42.7 °F 29.85 in SW 1.0 mph 5.0 mph 96 % 0.00 in
08:39 43.9 °F 42.8 °F 29.85 in Calm   2.0 mph 96 % 0.00 in
08:44 44.1 °F 43.0 °F 29.84 in Calm     96 % 0.00 in
08:49 44.2 °F 43.1 °F 29.84 in Calm   4.0 mph 96 % 0.00 in
08:54 44.4 °F 43.3 °F 29.84 in SW 0.8 mph 2.3 mph 96 % 0.00 in
08:59 44.6 °F 43.8 °F 29.84 in SW 1.4 mph 3.5 mph 97 % 0.00 in
09:04 44.7 °F 43.6 °F 29.85 in SW 0.7 mph 3.5 mph 96 % 0.00 in
09:09 44.9 °F 43.8 °F 29.85 in SW 3.7 mph 5.0 mph 96 % 0.00 in
09:14 45.0 °F 43.9 °F 29.85 in SW 3.5 mph 4.6 mph 96 % 0.00 in
09:19 45.1 °F 44.0 °F 29.85 in West 0.3 mph 3.5 mph 96 % 0.00 in
09:24 45.2 °F 44.1 °F 29.85 in Calm     96 % 0.00 in
09:29 45.2 °F 44.1 °F 29.85 in SW 1.1 mph 3.5 mph 96 % 0.00 in
09:34 45.4 °F 44.3 °F 29.85 in WSW 2.3 mph 3.5 mph 96 % 0.00 in
09:39 45.6 °F 44.3 °F 29.85 in WSW 3.1 mph 3.5 mph 95 % 0.00 in
09:44 45.8 °F 44.4 °F 29.85 in SSW 3.3 mph 4.6 mph 95 % 0.00 in
09:49 46.0 °F 44.6 °F 29.85 in West 2.0 mph 3.5 mph 95 % 0.00 in
09:54 46.3 °F 44.9 °F 29.86 in SW 2.0 mph 3.5 mph 95 % 0.00 in
09:59 46.6 °F 45.0 °F 29.85 in SW 2.6 mph 4.0 mph 94 % 0.00 in
10:04 46.9 °F 45.0 °F 29.85 in South 4.5 mph 6.9 mph 93 % 0.00 in
10:10 47.3 °F 45.4 °F 29.84 in SSW 1.6 mph 5.0 mph 93 % 0.00 in
10:15 47.6 °F 45.4 °F 29.84 in WNW 2.6 mph 4.6 mph 92 % 0.00 in
10:20 47.9 °F 45.4 °F 29.84 in West 1.6 mph 3.5 mph 91 % 0.00 in
10:25 48.0 °F 45.2 °F 29.84 in WSW 1.8 mph 3.5 mph 90 % 0.00 in
10:30 48.1 °F 45.3 °F 29.84 in West 3.6 mph 4.6 mph 90 % 0.00 in
10:35 48.3 °F 45.2 °F 29.84 in West 4.4 mph 6.9 mph 89 % 0.00 in
10:40 48.4 °F 45.3 °F 29.84 in WSW 3.3 mph 5.8 mph 89 % 0.00 in
10:45 48.6 °F 45.2 °F 29.83 in WNW 2.9 mph 5.8 mph 88 % 0.00 in
10:50 48.8 °F 45.4 °F 29.83 in Calm   1.2 mph 88 % 0.00 in
10:55 49.0 °F 45.6 °F 29.82 in WSW 2.4 mph 4.0 mph 88 % 0.00 in
11:00 49.2 °F 45.8 °F 29.82 in WNW 4.2 mph 5.8 mph 88 % 0.00 in
11:05 49.4 °F 45.7 °F 29.82 in West 1.4 mph 5.8 mph 87 % 0.00 in
11:10 49.6 °F 45.9 °F 29.82 in WNW 4.5 mph 5.8 mph 87 % 0.00 in
11:15 49.7 °F 46.0 °F 29.82 in WNW 2.9 mph 3.5 mph 87 % 0.00 in
11:20 49.9 °F 45.9 °F 29.83 in West 3.7 mph 4.6 mph 86 % 0.00 in
11:26 49.9 °F 45.6 °F 29.83 in West 3.7 mph 5.0 mph 85 % 0.00 in
11:31 50.0 °F 45.7 °F 29.83 in West 0.6 mph 3.5 mph 85 % 0.00 in
11:36 50.0 °F 45.7 °F 29.82 in WNW 1.6 mph 2.3 mph 85 % 0.00 in
11:41 50.1 °F 45.8 °F 29.82 in NW 1.6 mph 4.0 mph 85 % 0.00 in
11:46 50.1 °F 45.8 °F 29.82 in NW 0.8 mph 3.5 mph 85 % 0.00 in
11:51 50.1 °F 45.8 °F 29.82 in NNW 1.8 mph 5.8 mph 85 % 0.00 in
11:56 50.1 °F 45.8 °F 29.82 in WSW 3.5 mph 5.0 mph 85 % 0.00 in
12:01 50.1 °F 45.5 °F 29.82 in WSW 2.7 mph 5.0 mph 84 % 0.00 in
12:06 50.1 °F 45.5 °F 29.82 in WSW 2.3 mph 4.0 mph 84 % 0.00 in
12:11 50.3 °F 46.0 °F 29.82 in WSW 2.0 mph 3.5 mph 85 % 0.00 in
12:16 50.5 °F 46.2 °F 29.81 in WNW 0.4 mph 2.3 mph 85 % 0.00 in
12:21 50.8 °F 46.1 °F 29.81 in WNW 0.9 mph 2.3 mph 84 % 0.00 in
12:26 51.1 °F 46.4 °F 29.81 in WSW 5.0 mph 8.1 mph 84 % 0.00 in
12:31 51.3 °F 46.3 °F 29.81 in West 2.1 mph 5.8 mph 83 % 0.00 in
12:36 51.6 °F 46.3 °F 29.80 in West 3.1 mph 4.6 mph 82 % 0.00 in
12:41 51.9 °F 46.9 °F 29.79 in SW 2.7 mph 5.8 mph 83 % 0.00 in
12:46 52.2 °F 46.9 °F 29.79 in WNW 2.5 mph 8.1 mph 82 % 0.00 in
12:51 52.4 °F 47.1 °F 29.79 in WSW 4.2 mph 7.0 mph 82 % 0.00 in
12:57 52.4 °F 46.4 °F 29.79 in SSW 4.2 mph 4.6 mph 80 % 0.00 in
13:02 52.4 °F 46.4 °F 29.79 in SW 5.0 mph 5.8 mph 80 % 0.00 in
13:07 52.6 °F 46.6 °F 29.78 in SW 4.8 mph 6.9 mph 80 % 0.00 in
13:12 52.7 °F 46.7 °F 29.78 in WNW 4.3 mph 6.0 mph 80 % 0.00 in
13:17 52.7 °F 46.7 °F 29.78 in SW 2.8 mph 5.0 mph 80 % 0.00 in
13:22 52.8 °F 46.5 °F 29.77 in WSW 3.1 mph 5.0 mph 79 % 0.00 in
13:27 52.8 °F 46.8 °F 29.77 in WNW 1.4 mph 4.0 mph 80 % 0.00 in
13:32 52.9 °F 46.9 °F 29.77 in NW 2.5 mph 3.5 mph 80 % 0.00 in
13:37 53.0 °F 47.0 °F 29.77 in West 0.4 mph 2.3 mph 80 % 0.00 in
13:42 53.1 °F 46.8 °F 29.77 in WSW 2.1 mph 5.8 mph 79 % 0.00 in
13:47 53.3 °F 47.0 °F 29.76 in West 0.1 mph 1.2 mph 79 % 0.00 in
13:52 53.4 °F 46.7 °F 29.76 in SW 1.9 mph 5.0 mph 78 % 0.00 in
13:57 53.5 °F 46.8 °F 29.76 in WNW 2.0 mph 3.5 mph 78 % 0.00 in
14:02 53.3 °F 46.6 °F 29.76 in WNW 3.7 mph 5.8 mph 78 % 0.00 in
14:07 53.1 °F 46.1 °F 29.76 in NNW 2.9 mph 4.0 mph 77 % 0.00 in
14:12 52.6 °F 45.6 °F 29.76 in NW 2.7 mph 5.0 mph 77 % 0.00 in
14:17 52.3 °F 46.0 °F 29.76 in NW 1.1 mph 3.5 mph 79 % 0.00 in
14:22 52.0 °F 45.7 °F 29.76 in NNW 1.5 mph 3.0 mph 79 % 0.00 in
14:27 51.7 °F 45.4 °F 29.75 in NW 2.1 mph 3.5 mph 79 % 0.00 in
14:32 51.4 °F 45.4 °F 29.76 in WNW 2.5 mph 3.5 mph 80 % 0.00 in
14:38 51.0 °F 45.0 °F 29.76 in WNW 1.2 mph 3.5 mph 80 % 0.00 in
14:43 50.6 °F 44.7 °F 29.76 in NNW 2.7 mph 3.5 mph 80 % 0.00 in
14:48 50.1 °F 44.5 °F 29.76 in NW 3.2 mph 5.8 mph 81 % 0.00 in
14:53 49.7 °F 44.4 °F 29.76 in NW 2.7 mph 4.0 mph 82 % 0.00 in
14:58 49.5 °F 44.2 °F 29.77 in NW 3.3 mph 6.9 mph 82 % 0.00 in
15:03 49.1 °F 44.2 °F 29.76 in NW 3.2 mph 3.5 mph 83 % 0.00 in
15:08 48.9 °F 44.3 °F 29.77 in WNW 0.4 mph 3.5 mph 84 % 0.00 in
15:14 48.7 °F 44.1 °F 29.77 in NW 2.6 mph 4.6 mph 84 % 0.00 in
15:19 48.6 °F 44.3 °F 29.77 in WNW 2.7 mph 3.5 mph 85 % 0.00 in
15:24 48.5 °F 44.2 °F 29.77 in NW 2.2 mph 4.0 mph 85 % 0.00 in
15:29 48.5 °F 44.2 °F 29.77 in NW 1.0 mph 2.0 mph 85 % 0.00 in
15:34 48.4 °F 44.4 °F 29.77 in Calm   3.0 mph 86 % 0.00 in
15:39 48.4 °F 44.4 °F 29.77 in NW 1.0 mph 2.0 mph 86 % 0.00 in
15:44 48.4 °F 44.4 °F 29.77 in Calm   2.0 mph 86 % 0.00 in
15:49 48.4 °F 44.4 °F 29.78 in Calm   1.0 mph 86 % 0.00 in
15:54 48.4 °F 44.7 °F 29.77 in Calm     87 % 0.00 in
15:59 48.4 °F 44.7 °F 29.77 in Calm     87 % 0.00 in
16:04 48.4 °F 44.7 °F 29.77 in Calm     87 % 0.00 in
16:09 48.3 °F 44.6 °F 29.77 in Calm     87 % 0.00 in
16:14 48.4 °F 44.7 °F 29.77 in Calm     87 % 0.00 in
16:19 48.3 °F 44.6 °F 29.77 in Calm     87 % 0.00 in
16:24 48.3 °F 44.6 °F 29.77 in Calm     87 % 0.00 in
16:29 48.3 °F 44.6 °F 29.76 in NW 0.2 mph 1.2 mph 87 % 0.00 in
16:34 48.3 °F 44.6 °F 29.77 in Calm     87 % 0.00 in
16:39 48.3 °F 44.9 °F 29.77 in Calm     88 % 0.00 in
16:44 48.3 °F 44.9 °F 29.76 in Calm     88 % 0.00 in
16:49 48.2 °F 44.8 °F 29.77 in Calm     88 % 0.00 in
16:54 48.1 °F 44.7 °F 29.77 in Calm     88 % 0.00 in
16:59 48.0 °F 44.3 °F 29.77 in Calm     87 % 0.00 in
17:04 47.9 °F 44.2 °F 29.77 in Calm     87 % 0.00 in
17:09 47.8 °F 44.1 °F 29.77 in Calm     87 % 0.00 in
17:15 47.6 °F 44.2 °F 29.77 in Calm     88 % 0.00 in
17:20 47.5 °F 44.1 °F 29.77 in NW 0.1 mph 1.0 mph 88 % 0.00 in
17:25 47.3 °F 43.9 °F 29.77 in WSW 0.1 mph 1.2 mph 88 % 0.00 in
17:30 47.1 °F 43.7 °F 29.77 in WSW 1.0 mph 2.0 mph 88 % 0.00 in
17:35 47.0 °F 43.6 °F 29.77 in WSW 0.4 mph 1.2 mph 88 % 0.00 in
17:40 46.9 °F 43.8 °F 29.77 in Calm   1.2 mph 89 % 0.00 in
17:45 46.7 °F 43.3 °F 29.77 in Calm   1.2 mph 88 % 0.00 in
17:50 46.5 °F 43.4 °F 29.77 in WSW 1.7 mph 3.5 mph 89 % 0.00 in
17:55 46.4 °F 43.3 °F 29.77 in WSW 0.7 mph 2.3 mph 89 % 0.00 in
18:00 46.2 °F 43.1 °F 29.78 in WSW 1.2 mph 2.3 mph 89 % 0.00 in
18:05 46.1 °F 43.3 °F 29.77 in SSW 0.8 mph 2.3 mph 90 % 0.00 in
18:10 45.9 °F 42.8 °F 29.77 in SSW 1.4 mph 2.3 mph 89 % 0.00 in
18:15 45.8 °F 42.7 °F 29.77 in SSW 1.5 mph 3.0 mph 89 % 0.00 in
18:20 45.5 °F 42.7 °F 29.77 in SSW 2.3 mph 3.5 mph 90 % 0.00 in
18:25 45.3 °F 42.5 °F 29.78 in SSW 2.8 mph 3.5 mph 90 % 0.00 in
18:30 45.2 °F 42.7 °F 29.78 in SW 1.6 mph 3.5 mph 91 % 0.00 in
18:35 45.0 °F 42.5 °F 29.78 in SSW 2.0 mph 3.5 mph 91 % 0.00 in
18:40 45.0 °F 42.5 °F 29.78 in South 2.1 mph 3.5 mph 91 % 0.00 in
18:46 44.8 °F 42.3 °F 29.78 in SW 1.8 mph 2.3 mph 91 % 0.00 in
18:51 44.7 °F 42.2 °F 29.78 in SSW 2.3 mph 3.5 mph 91 % 0.00 in
18:56 44.6 °F 42.1 °F 29.78 in SSW 1.0 mph 3.5 mph 91 % 0.00 in
19:01 44.5 °F 42.3 °F 29.78 in SSW 2.0 mph 2.0 mph 92 % 0.00 in
19:06 44.4 °F 42.2 °F 29.78 in SSW 0.5 mph 4.0 mph 92 % 0.00 in
19:11 44.3 °F 42.1 °F 29.78 in South 0.9 mph 3.5 mph 92 % 0.00 in
19:16 44.1 °F 41.9 °F 29.78 in South 0.6 mph 3.5 mph 92 % 0.00 in
19:21 44.1 °F 41.9 °F 29.78 in SW 1.0 mph 2.3 mph 92 % 0.00 in
19:26 43.9 °F 41.7 °F 29.78 in SSW 2.4 mph 3.5 mph 92 % 0.00 in
19:31 43.8 °F 41.9 °F 29.78 in SSW 1.0 mph 2.3 mph 93 % 0.00 in
19:36 43.8 °F 41.9 °F 29.78 in SSW 0.2 mph 1.2 mph 93 % 0.00 in
19:41 43.7 °F 41.8 °F 29.78 in SSW 1.3 mph 3.5 mph 93 % 0.00 in
19:46 43.7 °F 41.8 °F 29.78 in SSW 1.2 mph 3.5 mph 93 % 0.00 in
19:51 43.6 °F 41.7 °F 29.78 in Calm   1.2 mph 93 % 0.00 in
19:56 43.5 °F 41.6 °F 29.78 in SSW 0.5 mph 2.0 mph 93 % 0.00 in
20:01 43.4 °F 41.5 °F 29.78 in SSW 1.4 mph 2.3 mph 93 % 0.00 in
20:06 43.4 °F 41.5 °F 29.77 in SSW 1.1 mph 2.3 mph 93 % 0.00 in
20:12 43.3 °F 41.4 °F 29.77 in SSW 1.1 mph 2.3 mph 93 % 0.00 in
20:17 43.3 °F 41.4 °F 29.77 in SSW 1.8 mph 3.5 mph 93 % 0.00 in
20:22 43.2 °F 41.6 °F 29.78 in Calm     94 % 0.00 in
20:27 43.2 °F 41.3 °F 29.78 in Calm   1.0 mph 93 % 0.00 in
20:32 43.2 °F 41.6 °F 29.77 in SSW 0.8 mph 2.3 mph 94 % 0.00 in
20:37 43.2 °F 41.6 °F 29.77 in Calm     94 % 0.00 in
20:42 43.1 °F 41.5 °F 29.77 in Calm     94 % 0.00 in
20:47 43.1 °F 41.5 °F 29.77 in Calm     94 % 0.00 in
20:52 43.1 °F 41.5 °F 29.76 in SW 0.5 mph 2.3 mph 94 % 0.00 in
20:57 43.1 °F 41.5 °F 29.77 in SW 0.4 mph 1.2 mph 94 % 0.00 in
21:02 43.2 °F 41.6 °F 29.77 in Calm     94 % 0.00 in
21:07 43.2 °F 41.9 °F 29.77 in SW 0.1 mph   95 % 0.00 in
21:12 43.3 °F 42.0 °F 29.76 in SW 0.1 mph 1.2 mph 95 % 0.00 in
21:17 43.3 °F 42.0 °F 29.77 in SW 0.1 mph 1.2 mph 95 % 0.00 in
21:22 43.3 °F 42.0 °F 29.76 in Calm     95 % 0.00 in
21:27 43.4 °F 42.1 °F 29.76 in SW 0.2 mph 1.2 mph 95 % 0.00 in
21:32 43.5 °F 42.2 °F 29.76 in SW 1.4 mph 3.5 mph 95 % 0.00 in
21:38 43.6 °F 42.3 °F 29.76 in Calm   1.2 mph 95 % 0.00 in
21:43 43.6 °F 42.3 °F 29.76 in Calm     95 % 0.00 in
21:48 43.7 °F 42.4 °F 29.76 in Calm   2.3 mph 95 % 0.00 in
21:53 43.7 °F 42.4 °F 29.76 in SW 1.0 mph 2.0 mph 95 % 0.00 in
21:58 43.9 °F 42.6 °F 29.76 in SSW 0.8 mph 3.0 mph 95 % 0.00 in
22:03 43.9 °F 42.8 °F 29.76 in Calm   3.5 mph 96 % 0.00 in
22:08 44.0 °F 42.9 °F 29.76 in Calm     96 % 0.00 in
22:13 44.0 °F 42.9 °F 29.76 in SSW 0.2 mph 1.2 mph 96 % 0.00 in
22:18 44.1 °F 43.0 °F 29.76 in Calm     96 % 0.00 in
22:23 44.1 °F 43.0 °F 29.76 in Calm     96 % 0.00 in
22:28 44.1 °F 43.0 °F 29.76 in SSW 0.5 mph 2.3 mph 96 % 0.00 in
22:33 44.1 °F 43.0 °F 29.76 in Calm     96 % 0.00 in
22:38 44.1 °F 43.0 °F 29.77 in SSW 1.1 mph 3.0 mph 96 % 0.00 in
22:43 44.1 °F 43.0 °F 29.77 in Calm     96 % 0.00 in
22:48 44.1 °F 43.0 °F 29.77 in Calm     96 % 0.00 in
22:53 44.2 °F 43.1 °F 29.77 in SSW 0.9 mph 3.0 mph 96 % 0.00 in
22:59 44.2 °F 43.1 °F 29.77 in SW 3.2 mph 4.6 mph 96 % 0.00 in
23:04 44.2 °F 43.1 °F 29.78 in SW 3.5 mph 4.6 mph 96 % 0.00 in
23:09 44.3 °F 43.2 °F 29.77 in SW 2.6 mph 4.0 mph 96 % 0.00 in
23:14 44.3 °F 43.2 °F 29.77 in WSW 1.1 mph 3.5 mph 96 % 0.00 in
23:19 44.4 °F 43.3 °F 29.77 in SW 2.0 mph 6.0 mph 96 % 0.00 in
23:24 44.4 °F 43.3 °F 29.77 in SW 1.0 mph 5.0 mph 96 % 0.00 in
23:29 44.5 °F 43.4 °F 29.77 in SW 1.0 mph 6.0 mph 96 % 0.00 in
23:34 44.5 °F 43.7 °F 29.77 in SW 2.0 mph 4.0 mph 97 % 0.00 in
23:39 44.6 °F 43.8 °F 29.77 in WSW 2.0 mph 5.0 mph 97 % 0.00 in
23:44 44.7 °F 43.9 °F 29.77 in WSW 1.0 mph 4.0 mph 97 % 0.00 in
23:49 44.7 °F 43.9 °F 29.76 in WSW 1.0 mph 3.0 mph 97 % 0.00 in
23:54 44.8 °F 44.0 °F 29.76 in WNW 0.2 mph 3.5 mph 97 % 0.00 in
23:59 44.8 °F 44.0 °F 29.76 in Calm     97 % 0.00 in
Crab Meadow Weather
Compliments of Weather Underground - 3 mb

Script developed by  Jim McMurry - jmcmurry@mwt.net Adapted for the template by  Wim van der Kuil - Leuven-Template.eu

Weather Terms: Winter Storm Warning - Hazardous winter weather conditions that pose a threat to life and/or property are occurring, imminent or likely. The generic term, winter storm warning, is used for a combination of two or more of the following winter weather events; heavy snow, freezing rain, sleet and strong winds.